sensor_id;sensor_type;location;lat;lon;timestamp;pressure;altitude;pressure_sealevel;temperature;humidity
30110;BME280;14965;50.660;13.226;2023-08-30T00:00:45;94163.00;;;11.64;100.00
30110;BME280;14965;50.660;13.226;2023-08-30T00:03:11;94172.41;;;11.67;100.00
30110;BME280;14965;50.660;13.226;2023-08-30T00:05:40;94167.47;;;11.71;100.00
30110;BME280;14965;50.660;13.226;2023-08-30T00:08:07;94179.31;;;11.71;100.00
30110;BME280;14965;50.660;13.226;2023-08-30T00:10:33;94180.84;;;11.72;100.00
30110;BME280;14965;50.660;13.226;2023-08-30T00:12:59;94178.06;;;11.72;100.00
30110;BME280;14965;50.660;13.226;2023-08-30T00:15:25;94179.59;;;11.73;100.00
30110;BME280;14965;50.660;13.226;2023-08-30T00:17:51;94188.50;;;11.78;100.00
30110;BME280;14965;50.660;13.226;2023-08-30T00:20:17;94191.44;;;11.74;100.00
30110;BME280;14965;50.660;13.226;2023-08-30T00:22:45;94187.91;;;11.73;100.00
30110;BME280;14965;50.660;13.226;2023-08-30T00:25:10;94174.81;;;11.74;100.00
30110;BME280;14965;50.660;13.226;2023-08-30T00:27:36;94181.44;;;11.77;100.00
30110;BME280;14965;50.660;13.226;2023-08-30T00:30:03;94167.13;;;11.78;100.00
30110;BME280;14965;50.660;13.226;2023-08-30T00:32:29;94175.00;;;11.80;100.00
30110;BME280;14965;50.660;13.226;2023-08-30T00:34:55;94177.28;;;11.81;100.00
30110;BME280;14965;50.660;13.226;2023-08-30T00:37:21;94185.28;;;11.79;100.00
30110;BME280;14965;50.660;13.226;2023-08-30T00:39:49;94174.69;;;11.78;100.00
30110;BME280;14965;50.660;13.226;2023-08-30T00:42:14;94183.91;;;11.75;100.00
30110;BME280;14965;50.660;13.226;2023-08-30T00:44:40;94185.13;;;11.73;100.00
30110;BME280;14965;50.660;13.226;2023-08-30T00:47:07;94175.31;;;11.72;100.00
30110;BME280;14965;50.660;13.226;2023-08-30T00:49:33;94174.69;;;11.68;100.00
30110;BME280;14965;50.660;13.226;2023-08-30T00:52:02;94165.50;;;11.62;100.00
30110;BME280;14965;50.660;13.226;2023-08-30T00:54:29;94162.13;;;11.58;100.00
30110;BME280;14965;50.660;13.226;2023-08-30T00:56:57;94165.31;;;11.57;100.00
30110;BME280;14965;50.660;13.226;2023-08-30T00:59:24;94164.09;;;11.58;100.00
30110;BME280;14965;50.660;13.226;2023-08-30T01:01:51;94167.16;;;11.60;100.00
30110;BME280;14965;50.660;13.226;2023-08-30T01:04:17;94159.97;;;11.62;100.00
30110;BME280;14965;50.660;13.226;2023-08-30T01:06:43;94158.72;;;11.63;100.00
30110;BME280;14965;50.660;13.226;2023-08-30T01:09:09;94159.50;;;11.64;100.00
30110;BME280;14965;50.660;13.226;2023-08-30T01:11:40;94163.50;;;11.63;100.00
30110;BME280;14965;50.660;13.226;2023-08-30T01:14:29;94157.47;;;11.64;100.00
30110;BME280;14965;50.660;13.226;2023-08-30T01:16:58;94163.78;;;11.65;100.00
30110;BME280;14965;50.660;13.226;2023-08-30T01:19:41;94165.31;;;11.66;100.00
30110;BME280;14965;50.660;13.226;2023-08-30T01:22:14;94166.41;;;11.68;100.00
30110;BME280;14965;50.660;13.226;2023-08-30T01:24:52;94169.47;;;11.70;100.00
30110;BME280;14965;50.660;13.226;2023-08-30T01:27:25;94166.25;;;11.72;100.00
30110;BME280;14965;50.660;13.226;2023-08-30T01:29:54;94175.31;;;11.72;100.00
30110;BME280;14965;50.660;13.226;2023-08-30T01:32:22;94175.78;;;11.71;100.00
30110;BME280;14965;50.660;13.226;2023-08-30T01:34:50;94177.31;;;11.72;100.00
30110;BME280;14965;50.660;13.226;2023-08-30T01:37:17;94169.78;;;11.72;100.00
30110;BME280;14965;50.660;13.226;2023-08-30T01:39:44;94172.53;;;11.72;100.00
30110;BME280;14965;50.660;13.226;2023-08-30T01:42:12;94171.00;;;11.71;100.00
30110;BME280;14965;50.660;13.226;2023-08-30T01:44:41;94170.25;;;11.71;100.00
30110;BME280;14965;50.660;13.226;2023-08-30T01:47:08;94163.47;;;11.72;100.00
30110;BME280;14965;50.660;13.226;2023-08-30T01:49:36;94163.47;;;11.72;100.00
30110;BME280;14965;50.660;13.226;2023-08-30T01:52:04;94162.22;;;11.73;100.00
30110;BME280;14965;50.660;13.226;2023-08-30T01:54:31;94160.22;;;11.73;100.00
30110;BME280;14965;50.660;13.226;2023-08-30T01:56:57;94154.69;;;11.73;100.00
30110;BME280;14965;50.660;13.226;2023-08-30T01:59:23;94151.94;;;11.73;100.00
30110;BME280;14965;50.660;13.226;2023-08-30T02:01:51;94155.03;;;11.76;100.00
30110;BME280;14965;50.660;13.226;2023-08-30T02:04:17;94157.47;;;11.73;100.00
30110;BME280;14965;50.660;13.226;2023-08-30T02:06:50;94153.16;;;11.72;100.00
30110;BME280;14965;50.660;13.226;2023-08-30T02:09:26;94147.03;;;11.68;100.00
30110;BME280;14965;50.660;13.226;2023-08-30T02:11:55;94153.31;;;11.69;100.00
30110;BME280;14965;50.660;13.226;2023-08-30T02:14:26;94156.56;;;11.67;100.00
30110;BME280;14965;50.660;13.226;2023-08-30T02:16:55;94149.50;;;11.66;100.00
30110;BME280;14965;50.660;13.226;2023-08-30T02:19:21;94161.78;;;11.65;100.00
30110;BME280;14965;50.660;13.226;2023-08-30T02:21:48;94159.34;;;11.67;100.00
30110;BME280;14965;50.660;13.226;2023-08-30T02:24:14;94159.63;;;11.69;100.00
30110;BME280;14965;50.660;13.226;2023-08-30T02:26:40;94160.22;;;11.73;100.00
30110;BME280;14965;50.660;13.226;2023-08-30T02:29:06;94149.63;;;11.72;100.00
30110;BME280;14965;50.660;13.226;2023-08-30T02:31:32;94163.47;;;11.72;100.00
30110;BME280;14965;50.660;13.226;2023-08-30T02:33:59;94162.72;;;11.71;100.00
30110;BME280;14965;50.660;13.226;2023-08-30T02:36:25;94166.25;;;11.72;100.00
30110;BME280;14965;50.660;13.226;2023-08-30T02:38:51;94162.22;;;11.73;100.00
30110;BME280;14965;50.660;13.226;2023-08-30T02:41:17;94164.09;;;11.76;100.00
30110;BME280;14965;50.660;13.226;2023-08-30T02:43:43;94151.31;;;11.79;100.00
30110;BME280;14965;50.660;13.226;2023-08-30T02:46:09;94156.06;;;11.78;100.00
30110;BME280;14965;50.660;13.226;2023-08-30T02:48:35;94157.31;;;11.77;100.00
30110;BME280;14965;50.660;13.226;2023-08-30T02:51:02;94153.50;;;11.75;100.00
30110;BME280;14965;50.660;13.226;2023-08-30T02:53:28;94151.94;;;11.73;100.00
30110;BME280;14965;50.660;13.226;2023-08-30T02:55:54;94152.69;;;11.74;100.00
30110;BME280;14965;50.660;13.226;2023-08-30T02:58:20;94151.94;;;11.73;100.00
30110;BME280;14965;50.660;13.226;2023-08-30T03:00:46;94161.47;;;11.72;100.00
30110;BME280;14965;50.660;13.226;2023-08-30T03:03:11;94154.09;;;11.69;100.00
30110;BME280;14965;50.660;13.226;2023-08-30T03:05:37;94163.63;;;11.59;100.00
30110;BME280;14965;50.660;13.226;2023-08-30T03:08:05;94167.19;;;11.51;100.00
30110;BME280;14965;50.660;13.226;2023-08-30T03:10:31;94167.00;;;11.45;100.00
30110;BME280;14965;50.660;13.226;2023-08-30T03:12:57;94160.88;;;11.41;100.00
30110;BME280;14965;50.660;13.226;2023-08-30T03:15:23;94162.44;;;11.42;100.00
30110;BME280;14965;50.660;13.226;2023-08-30T03:17:49;94160.28;;;11.46;100.00
30110;BME280;14965;50.660;13.226;2023-08-30T03:20:15;94167.47;;;11.43;100.00
30110;BME280;14965;50.660;13.226;2023-08-30T03:22:41;94162.09;;;11.40;100.00
30110;BME280;14965;50.660;13.226;2023-08-30T03:25:09;94166.41;;;11.41;100.00
30110;BME280;14965;50.660;13.226;2023-08-30T03:27:35;94164.88;;;11.40;100.00
30110;BME280;14965;50.660;13.226;2023-08-30T03:30:01;94163.63;;;11.41;100.00
30110;BME280;14965;50.660;13.226;2023-08-30T03:32:28;94167.00;;;11.45;100.00
30110;BME280;14965;50.660;13.226;2023-08-30T03:34:54;94158.28;;;11.46;100.00
30110;BME280;14965;50.660;13.226;2023-08-30T03:37:20;94163.03;;;11.46;100.00
30110;BME280;14965;50.660;13.226;2023-08-30T03:39:46;94170.09;;;11.47;100.00
30110;BME280;14965;50.660;13.226;2023-08-30T03:42:13;94174.88;;;11.46;100.00
30110;BME280;14965;50.660;13.226;2023-08-30T03:44:39;94171.94;;;11.50;100.00
30110;BME280;14965;50.660;13.226;2023-08-30T03:47:05;94181.63;;;11.55;100.00
30110;BME280;14965;50.660;13.226;2023-08-30T03:49:31;94179.16;;;11.57;100.00
30110;BME280;14965;50.660;13.226;2023-08-30T03:51:57;94176.38;;;11.57;100.00
30110;BME280;14965;50.660;13.226;2023-08-30T03:54:23;94176.09;;;11.55;100.00
30110;BME280;14965;50.660;13.226;2023-08-30T03:56:49;94173.47;;;11.51;100.00
30110;BME280;14965;50.660;13.226;2023-08-30T03:59:16;94177.00;;;11.42;100.00
30110;BME280;14965;50.660;13.226;2023-08-30T04:01:42;94166.41;;;11.41;100.00
30110;BME280;14965;50.660;13.226;2023-08-30T04:04:08;94161.94;;;11.43;100.00
30110;BME280;14965;50.660;13.226;2023-08-30T04:06:33;94173.34;;;11.45;100.00
30110;BME280;14965;50.660;13.226;2023-08-30T04:08:59;94166.41;;;11.50;100.00
30110;BME280;14965;50.660;13.226;2023-08-30T04:11:25;94171.94;;;11.50;100.00
30110;BME280;14965;50.660;13.226;2023-08-30T04:13:51;94172.88;;;11.47;100.00
30110;BME280;14965;50.660;13.226;2023-08-30T04:16:19;94164.56;;;11.47;100.00
30110;BME280;14965;50.660;13.226;2023-08-30T04:18:44;94164.56;;;11.47;100.00
30110;BME280;14965;50.660;13.226;2023-08-30T04:21:10;94158.56;;;11.48;100.00
30110;BME280;14965;50.660;13.226;2023-08-30T04:23:36;94152.13;;;11.52;100.00
30110;BME280;14965;50.660;13.226;2023-08-30T04:26:02;94158.25;;;11.56;100.00
30110;BME280;14965;50.660;13.226;2023-08-30T04:28:28;94163.31;;;11.57;100.00
30110;BME280;14965;50.660;13.226;2023-08-30T04:30:55;94167.16;;;11.60;100.00
30110;BME280;14965;50.660;13.226;2023-08-30T04:33:22;94161.47;;;11.63;100.00
30110;BME280;14965;50.660;13.226;2023-08-30T04:35:50;94158.56;;;11.67;100.00
30110;BME280;14965;50.660;13.226;2023-08-30T04:38:16;94161.94;;;11.71;100.00
30110;BME280;14965;50.660;13.226;2023-08-30T04:40:42;94166.25;;;11.72;100.00
30110;BME280;14965;50.660;13.226;2023-08-30T04:43:08;94163.00;;;11.73;100.00
30110;BME280;14965;50.660;13.226;2023-08-30T04:45:34;94163.00;;;11.73;100.00
30110;BME280;14965;50.660;13.226;2023-08-30T04:48:00;94162.56;;;11.75;100.00
30110;BME280;14965;50.660;13.226;2023-08-30T04:50:27;94155.03;;;11.76;100.00
30110;BME280;14965;50.660;13.226;2023-08-30T04:52:53;94160.84;;;11.78;100.00
30110;BME280;14965;50.660;13.226;2023-08-30T04:55:19;94175.91;;;11.77;100.00
30110;BME280;14965;50.660;13.226;2023-08-30T04:57:45;94168.38;;;11.77;100.00
30110;BME280;14965;50.660;13.226;2023-08-30T05:00:12;94172.66;;;11.78;100.00
30110;BME280;14965;50.660;13.226;2023-08-30T05:02:38;94175.28;;;11.82;100.00
30110;BME280;14965;50.660;13.226;2023-08-30T05:05:05;94174.06;;;11.83;100.00
30110;BME280;14965;50.660;13.226;2023-08-30T05:07:33;94179.59;;;11.83;100.00
30110;BME280;14965;50.660;13.226;2023-08-30T05:09:58;94188.69;;;11.83;100.00
30110;BME280;14965;50.660;13.226;2023-08-30T05:12:24;94183.59;;;11.82;100.00
30110;BME280;14965;50.660;13.226;2023-08-30T05:14:50;94178.97;;;11.79;100.00
30110;BME280;14965;50.660;13.226;2023-08-30T05:17:16;94175.75;;;11.80;100.00
30110;BME280;14965;50.660;13.226;2023-08-30T05:19:42;94181.59;;;11.82;100.00
30110;BME280;14965;50.660;13.226;2023-08-30T05:22:08;94175.00;;;11.80;100.00
30110;BME280;14965;50.660;13.226;2023-08-30T05:24:35;94171.91;;;11.78;100.00
30110;BME280;14965;50.660;13.226;2023-08-30T05:27:02;94175.16;;;11.76;100.00
30110;BME280;14965;50.660;13.226;2023-08-30T05:29:28;94174.06;;;11.73;100.00
30110;BME280;14965;50.660;13.226;2023-08-30T05:31:54;94179.31;;;11.71;100.00
30110;BME280;14965;50.660;13.226;2023-08-30T05:34:20;94182.06;;;11.71;100.00
30110;BME280;14965;50.660;13.226;2023-08-30T05:36:45;94182.38;;;11.73;100.00
30110;BME280;14965;50.660;13.226;2023-08-30T05:39:11;94175.16;;;11.76;100.00
30110;BME280;14965;50.660;13.226;2023-08-30T05:41:39;94176.19;;;11.79;100.00
30110;BME280;14965;50.660;13.226;2023-08-30T05:44:06;94178.97;;;11.79;100.00
30110;BME280;14965;50.660;13.226;2023-08-30T05:46:32;94179.75;;;11.79;100.00
30110;BME280;14965;50.660;13.226;2023-08-30T05:48:58;94180.81;;;11.82;100.00
30110;BME280;14965;50.660;13.226;2023-08-30T05:51:23;94177.16;;;11.85;100.00
30110;BME280;14965;50.660;13.226;2023-08-30T05:53:49;94186.06;;;11.89;100.00
30110;BME280;14965;50.660;13.226;2023-08-30T05:56:15;94189.59;;;11.89;100.00
30110;BME280;14965;50.660;13.226;2023-08-30T05:58:42;94179.91;;;11.94;100.00
30110;BME280;14965;50.660;13.226;2023-08-30T06:01:08;94178.06;;;12.00;100.00
30110;BME280;14965;50.660;13.226;2023-08-30T06:03:34;94178.66;;;12.04;100.00
30110;BME280;14965;50.660;13.226;2023-08-30T06:06:00;94177.56;;;12.11;100.00
30110;BME280;14965;50.660;13.226;2023-08-30T06:08:26;94180.50;;;12.16;100.00
30110;BME280;14965;50.660;13.226;2023-08-30T06:10:52;94183.66;;;12.24;100.00
30110;BME280;14965;50.660;13.226;2023-08-30T06:13:18;94177.03;;;12.31;100.00
30110;BME280;14965;50.660;13.226;2023-08-30T06:15:50;94174.25;;;12.40;100.00
30110;BME280;14965;50.660;13.226;2023-08-30T06:18:17;94177.44;;;12.48;100.00
30110;BME280;14965;50.660;13.226;2023-08-30T06:20:43;94177.28;;;12.51;100.00
30110;BME280;14965;50.660;13.226;2023-08-30T06:23:09;94165.56;;;12.56;100.00
30110;BME280;14965;50.660;13.226;2023-08-30T06:25:35;94166.16;;;12.60;100.00
30110;BME280;14965;50.660;13.226;2023-08-30T06:28:01;94167.53;;;12.65;100.00
30110;BME280;14965;50.660;13.226;2023-08-30T06:30:27;94175.50;;;12.72;100.00
30110;BME280;14965;50.660;13.226;2023-08-30T06:32:55;94169.31;;;12.77;100.00
30110;BME280;14965;50.660;13.226;2023-08-30T06:35:21;94176.81;;;12.86;100.00
30110;BME280;14965;50.660;13.226;2023-08-30T06:37:46;94171.97;;;12.95;100.00
30110;BME280;14965;50.660;13.226;2023-08-30T06:40:12;94169.63;;;13.03;100.00
30110;BME280;14965;50.660;13.226;2023-08-30T06:42:38;94165.56;;;13.13;100.00
30110;BME280;14965;50.660;13.226;2023-08-30T06:45:06;94168.94;;;13.17;100.00
30110;BME280;14965;50.660;13.226;2023-08-30T06:47:32;94171.53;;;13.21;100.00
30110;BME280;14965;50.660;13.226;2023-08-30T06:50:00;94179.03;;;13.20;100.00
30110;BME280;14965;50.660;13.226;2023-08-30T06:52:26;94181.06;;;13.20;100.00
30110;BME280;14965;50.660;13.226;2023-08-30T06:54:52;94181.53;;;13.18;100.00
30110;BME280;14965;50.660;13.226;2023-08-30T06:57:18;94181.53;;;13.18;100.00
30110;BME280;14965;50.660;13.226;2023-08-30T06:59:44;94183.69;;;13.24;100.00
30110;BME280;14965;50.660;13.226;2023-08-30T07:02:10;94184.75;;;13.26;100.00
30110;BME280;14965;50.660;13.226;2023-08-30T07:04:36;94183.69;;;13.24;100.00
30110;BME280;14965;50.660;13.226;2023-08-30T07:07:03;94185.34;;;13.30;100.00
30110;BME280;14965;50.660;13.226;2023-08-30T07:09:31;94182.50;;;13.39;100.00
30110;BME280;14965;50.660;13.226;2023-08-30T07:11:56;94177.06;;;13.45;100.00
30110;BME280;14965;50.660;13.226;2023-08-30T07:14:22;94181.66;;;13.48;100.00
30110;BME280;14965;50.660;13.226;2023-08-30T07:16:48;94178.72;;;13.52;100.00
30110;BME280;14965;50.660;13.226;2023-08-30T07:19:14;94180.81;;;13.57;100.00
30110;BME280;14965;50.660;13.226;2023-08-30T07:21:40;94187.44;;;13.59;100.00
30110;BME280;14965;50.660;13.226;2023-08-30T07:24:09;94186.69;;;13.59;100.00
30110;BME280;14965;50.660;13.226;2023-08-30T07:26:36;94192.22;;;13.59;100.00
30110;BME280;14965;50.660;13.226;2023-08-30T07:29:02;94188.66;;;13.58;100.00
30110;BME280;14965;50.660;13.226;2023-08-30T07:31:28;94174.59;;;13.62;100.00
30110;BME280;14965;50.660;13.226;2023-08-30T07:33:54;94183.13;;;13.58;100.00
30110;BME280;14965;50.660;13.226;2023-08-30T07:36:20;94187.78;;;13.52;100.00
30110;BME280;14965;50.660;13.226;2023-08-30T07:38:46;94191.06;;;13.51;100.00
30110;BME280;14965;50.660;13.226;2023-08-30T07:41:13;94191.66;;;13.55;100.00
30110;BME280;14965;50.660;13.226;2023-08-30T07:43:39;94188.63;;;13.67;100.00
30110;BME280;14965;50.660;13.226;2023-08-30T07:46:05;94190.06;;;13.78;100.00
30110;BME280;14965;50.660;13.226;2023-08-30T07:48:31;94183.38;;;13.84;100.00
30110;BME280;14965;50.660;13.226;2023-08-30T07:50:57;94190.66;;;13.97;100.00
30110;BME280;14965;50.660;13.226;2023-08-30T07:53:23;94187.31;;;14.07;100.00
30110;BME280;14965;50.660;13.226;2023-08-30T07:56:09;94183.22;;;14.17;100.00
30110;BME280;14965;50.660;13.226;2023-08-30T07:58:36;94181.59;;;14.26;100.00
30110;BME280;14965;50.660;13.226;2023-08-30T08:01:02;94189.06;;;14.34;100.00
30110;BME280;14965;50.660;13.226;2023-08-30T08:03:28;94184.16;;;14.44;100.00
30110;BME280;14965;50.660;13.226;2023-08-30T08:05:54;94191.81;;;14.49;100.00
30110;BME280;14965;50.660;13.226;2023-08-30T08:08:20;94189.16;;;14.55;100.00
30110;BME280;14965;50.660;13.226;2023-08-30T08:10:46;94192.97;;;14.57;100.00
30110;BME280;14965;50.660;13.226;2023-08-30T08:13:11;94192.97;;;14.57;100.00
30110;BME280;14965;50.660;13.226;2023-08-30T08:15:39;94192.75;;;14.46;98.51
30110;BME280;14965;50.660;13.226;2023-08-30T08:18:05;94191.41;;;14.41;99.35
30110;BME280;14965;50.660;13.226;2023-08-30T08:20:32;94193.06;;;14.48;99.26
30110;BME280;14965;50.660;13.226;2023-08-30T08:22:58;94188.66;;;14.56;98.79
30110;BME280;14965;50.660;13.226;2023-08-30T08:25:24;94185.19;;;14.61;97.98
30110;BME280;14965;50.660;13.226;2023-08-30T08:27:50;94186.28;;;14.64;96.29
30110;BME280;14965;50.660;13.226;2023-08-30T08:30:16;94189.03;;;14.64;96.04
30110;BME280;14965;50.660;13.226;2023-08-30T08:32:46;94188.56;;;14.65;95.66
30110;BME280;14965;50.660;13.226;2023-08-30T08:35:12;94198.97;;;14.70;94.79
30110;BME280;14965;50.660;13.226;2023-08-30T08:37:38;94196.22;;;14.70;94.80
30110;BME280;14965;50.660;13.226;2023-08-30T08:40:05;94194.00;;;14.75;95.88
30110;BME280;14965;50.660;13.226;2023-08-30T08:42:32;94185.94;;;14.77;95.22
30110;BME280;14965;50.660;13.226;2023-08-30T08:44:59;94185.38;;;14.73;95.89
30110;BME280;14965;50.660;13.226;2023-08-30T08:47:26;94177.88;;;14.79;95.43
30110;BME280;14965;50.660;13.226;2023-08-30T08:49:55;94189.44;;;14.92;95.55
30110;BME280;14965;50.660;13.226;2023-08-30T08:52:21;94181.59;;;14.90;92.69
30110;BME280;14965;50.660;13.226;2023-08-30T08:54:47;94177.19;;;14.84;92.14
30110;BME280;14965;50.660;13.226;2023-08-30T08:57:13;94173.59;;;14.78;92.40
30110;BME280;14965;50.660;13.226;2023-08-30T08:59:39;94179.38;;;14.94;93.40
30110;BME280;14965;50.660;13.226;2023-08-30T09:02:06;94166.63;;;15.23;93.66
30110;BME280;14965;50.660;13.226;2023-08-30T09:04:34;94172.75;;;15.48;92.16
30110;BME280;14965;50.660;13.226;2023-08-30T09:07:02;94169.06;;;15.77;91.32
30110;BME280;14965;50.660;13.226;2023-08-30T09:09:28;94163.22;;;16.01;89.62
30110;BME280;14965;50.660;13.226;2023-08-30T09:11:54;94159.41;;;16.24;88.83
30110;BME280;14965;50.660;13.226;2023-08-30T09:14:20;94169.94;;;16.40;87.65
30110;BME280;14965;50.660;13.226;2023-08-30T09:16:55;94170.31;;;16.54;86.06
30110;BME280;14965;50.660;13.226;2023-08-30T09:19:21;94161.72;;;16.89;84.72
30110;BME280;14965;50.660;13.226;2023-08-30T09:21:51;94168.97;;;17.12;83.11
30110;BME280;14965;50.660;13.226;2023-08-30T09:24:18;94159.41;;;17.30;80.38
30110;BME280;14965;50.660;13.226;2023-08-30T09:26:48;94162.03;;;17.45;78.22
30110;BME280;14965;50.660;13.226;2023-08-30T09:29:18;94159.28;;;17.08;77.87
30110;BME280;14965;50.660;13.226;2023-08-30T09:31:44;94160.25;;;16.99;77.37
30110;BME280;14965;50.660;13.226;2023-08-30T09:34:10;94159.03;;;17.06;78.37
30110;BME280;14965;50.660;13.226;2023-08-30T09:36:38;94155.22;;;17.03;75.21
30110;BME280;14965;50.660;13.226;2023-08-30T09:39:05;94164.66;;;17.17;76.20
30110;BME280;14965;50.660;13.226;2023-08-30T09:41:32;94160.47;;;17.38;75.82
30110;BME280;14965;50.660;13.226;2023-08-30T09:43:59;94166.25;;;17.29;76.91
30110;BME280;14965;50.660;13.226;2023-08-30T09:46:25;94157.94;;;17.35;76.06
30110;BME280;14965;50.660;13.226;2023-08-30T09:48:53;94163.53;;;17.46;76.00
30110;BME280;14965;50.660;13.226;2023-08-30T09:51:23;94154.47;;;17.62;75.85
30110;BME280;14965;50.660;13.226;2023-08-30T09:53:57;94158.63;;;17.78;72.58
30110;BME280;14965;50.660;13.226;2023-08-30T09:56:27;94160.72;;;17.95;75.41
30110;BME280;14965;50.660;13.226;2023-08-30T09:58:56;94165.03;;;18.01;72.52
30110;BME280;14965;50.660;13.226;2023-08-30T10:01:23;94162.25;;;18.07;72.71
30110;BME280;14965;50.660;13.226;2023-08-30T10:03:49;94163.25;;;17.98;70.12
30110;BME280;14965;50.660;13.226;2023-08-30T10:06:16;94164.78;;;17.99;70.48
30110;BME280;14965;50.660;13.226;2023-08-30T10:08:47;94170.97;;;17.60;65.09
30110;BME280;14965;50.660;13.226;2023-08-30T10:11:16;94167.09;;;17.47;65.79
30110;BME280;14965;50.660;13.226;2023-08-30T10:13:44;94153.72;;;17.67;69.91
30110;BME280;14965;50.660;13.226;2023-08-30T10:16:19;94158.25;;;17.54;67.66
30110;BME280;14965;50.660;13.226;2023-08-30T10:18:54;94158.19;;;17.42;71.42
30110;BME280;14965;50.660;13.226;2023-08-30T10:21:21;94153.38;;;17.43;70.27
30110;BME280;14965;50.660;13.226;2023-08-30T10:23:50;94150.28;;;17.30;73.02
30110;BME280;14965;50.660;13.226;2023-08-30T10:26:18;94151.06;;;17.36;71.30
30110;BME280;14965;50.660;13.226;2023-08-30T10:28:45;94147.13;;;17.65;69.24
30110;BME280;14965;50.660;13.226;2023-08-30T10:31:14;94150.28;;;18.01;67.57
30110;BME280;14965;50.660;13.226;2023-08-30T10:33:49;94152.13;;;18.32;66.33
30110;BME280;14965;50.660;13.226;2023-08-30T10:36:21;94155.69;;;18.27;64.64
30110;BME280;14965;50.660;13.226;2023-08-30T10:38:50;94153.88;;;18.07;66.57
30110;BME280;14965;50.660;13.226;2023-08-30T10:41:21;94158.94;;;18.14;66.72
30110;BME280;14965;50.660;13.226;2023-08-30T10:43:51;94161.50;;;18.12;67.06
30110;BME280;14965;50.660;13.226;2023-08-30T10:46:29;94156.13;;;17.97;66.62
30110;BME280;14965;50.660;13.226;2023-08-30T10:48:56;94161.06;;;17.59;64.00
30110;BME280;14965;50.660;13.226;2023-08-30T10:51:37;94166.91;;;17.07;66.50
30110;BME280;14965;50.660;13.226;2023-08-30T10:54:11;94170.28;;;16.22;68.59
30110;BME280;14965;50.660;13.226;2023-08-30T10:56:47;94167.00;;;15.98;72.17
30110;BME280;14965;50.660;13.226;2023-08-30T10:59:17;94169.25;;;15.93;71.56
30110;BME280;14965;50.660;13.226;2023-08-30T11:01:46;94169.03;;;15.97;72.67
30110;BME280;14965;50.660;13.226;2023-08-30T11:04:14;94171.91;;;16.08;76.65
30110;BME280;14965;50.660;13.226;2023-08-30T11:06:42;94173.56;;;16.21;77.08
30110;BME280;14965;50.660;13.226;2023-08-30T11:09:08;94172.56;;;16.24;76.66
30110;BME280;14965;50.660;13.226;2023-08-30T11:11:36;94168.63;;;16.36;74.78
30110;BME280;14965;50.660;13.226;2023-08-30T11:14:07;94172.28;;;16.48;74.18
30110;BME280;14965;50.660;13.226;2023-08-30T11:16:33;94168.09;;;16.63;75.92
30110;BME280;14965;50.660;13.226;2023-08-30T11:19:01;94162.22;;;16.87;75.19
30110;BME280;14965;50.660;13.226;2023-08-30T11:21:27;94164.41;;;17.15;73.39
30110;BME280;14965;50.660;13.226;2023-08-30T11:23:53;94148.06;;;17.39;72.37
30110;BME280;14965;50.660;13.226;2023-08-30T11:26:19;94144.06;;;17.63;69.00
30110;BME280;14965;50.660;13.226;2023-08-30T11:28:45;94141.13;;;17.89;67.58
30110;BME280;14965;50.660;13.226;2023-08-30T11:31:18;94138.66;;;18.30;68.46
30110;BME280;14965;50.660;13.226;2023-08-30T11:33:51;94143.75;;;18.43;67.86
30110;BME280;14965;50.660;13.226;2023-08-30T11:36:19;94151.09;;;18.35;67.39
30110;BME280;14965;50.660;13.226;2023-08-30T11:38:46;94146.03;;;18.28;65.21
30110;BME280;14965;50.660;13.226;2023-08-30T11:41:12;94148.81;;;18.11;66.91
30110;BME280;14965;50.660;13.226;2023-08-30T11:43:38;94149.50;;;17.89;66.98
30110;BME280;14965;50.660;13.226;2023-08-30T11:46:05;94152.72;;;17.65;67.13
30110;BME280;14965;50.660;13.226;2023-08-30T11:48:31;94154.13;;;17.38;69.69
30110;BME280;14965;50.660;13.226;2023-08-30T11:50:58;94159.69;;;17.32;71.14
30110;BME280;14965;50.660;13.226;2023-08-30T11:53:27;94147.06;;;17.48;71.28
30110;BME280;14965;50.660;13.226;2023-08-30T11:55:53;94151.16;;;17.58;73.09
30110;BME280;14965;50.660;13.226;2023-08-30T11:58:19;94147.91;;;17.65;71.79
30110;BME280;14965;50.660;13.226;2023-08-30T12:00:46;94146.38;;;17.64;69.85
30110;BME280;14965;50.660;13.226;2023-08-30T12:03:15;94142.56;;;17.62;69.53
30110;BME280;14965;50.660;13.226;2023-08-30T12:05:44;94144.28;;;17.54;69.51
30110;BME280;14965;50.660;13.226;2023-08-30T12:08:18;94128.78;;;17.47;70.52
30110;BME280;14965;50.660;13.226;2023-08-30T12:10:45;94135.41;;;17.55;70.64
30110;BME280;14965;50.660;13.226;2023-08-30T12:13:21;94132.13;;;17.62;71.43
30110;BME280;14965;50.660;13.226;2023-08-30T12:15:47;94124.34;;;17.78;68.63
30110;BME280;14965;50.660;13.226;2023-08-30T12:18:13;94132.25;;;17.85;68.83
30110;BME280;14965;50.660;13.226;2023-08-30T12:20:39;94126.41;;;18.05;69.83
30110;BME280;14965;50.660;13.226;2023-08-30T12:23:05;94134.06;;;18.22;67.53
30110;BME280;14965;50.660;13.226;2023-08-30T12:25:31;94127.47;;;18.30;68.04
30110;BME280;14965;50.660;13.226;2023-08-30T12:27:58;94132.03;;;18.22;67.89
30110;BME280;14965;50.660;13.226;2023-08-30T12:30:24;94121.13;;;18.24;66.98
30110;BME280;14965;50.660;13.226;2023-08-30T12:32:50;94111.47;;;18.31;66.85
30110;BME280;14965;50.660;13.226;2023-08-30T12:35:16;94122.16;;;18.49;66.78
30110;BME280;14965;50.660;13.226;2023-08-30T12:37:42;94122.91;;;18.61;64.65
30110;BME280;14965;50.660;13.226;2023-08-30T12:40:09;94125.69;;;18.66;65.45
30110;BME280;14965;50.660;13.226;2023-08-30T12:42:35;94111.97;;;18.46;63.30